createdAt,value
2017-04-20T00:08:22.792Z,977.11
2017-04-20T00:09:25.772Z,977.13
2017-04-20T00:10:28.801Z,977.08
2017-04-20T00:11:31.790Z,977.12
2017-04-20T00:12:35.511Z,977.07
2017-04-20T00:13:39.089Z,977.10
2017-04-20T00:14:41.063Z,977.05
2017-04-20T00:15:44.751Z,977.10
2017-04-20T00:16:47.296Z,977.06
2017-04-20T00:17:50.785Z,977.08
2017-04-20T00:18:54.355Z,977.09
2017-04-20T00:19:57.208Z,977.09
2017-04-20T00:21:00.523Z,977.13
2017-04-20T00:22:04.771Z,977.16
2017-04-20T00:23:07.257Z,977.19
2017-04-20T00:24:10.082Z,977.19
2017-04-20T00:25:13.653Z,977.23
2017-04-20T00:26:17.378Z,977.28
2017-04-20T00:27:20.871Z,977.28
2017-04-20T00:28:22.469Z,977.34
2017-04-20T00:29:27.175Z,977.36
2017-04-20T00:30:29.820Z,977.37
2017-04-20T00:31:33.635Z,977.38
2017-04-20T00:32:36.768Z,977.40
2017-04-20T00:33:39.700Z,977.44
2017-04-20T00:34:43.523Z,977.43
2017-04-20T00:35:47.660Z,977.50
2017-04-20T00:36:49.362Z,977.56
2017-04-20T00:37:52.813Z,977.52
2017-04-20T00:38:55.676Z,977.56
2017-04-20T00:40:00.875Z,977.55
2017-04-20T00:41:03.203Z,977.58
2017-04-20T00:42:06.113Z,977.56
2017-04-20T00:43:09.930Z,977.56
2017-04-20T00:44:13.612Z,977.58
2017-04-20T00:45:18.123Z,977.57
2017-04-20T00:46:22.142Z,977.56
2017-04-20T00:47:25.489Z,977.55
2017-04-20T00:48:29.711Z,977.57
2017-04-20T00:49:31.806Z,977.59
2017-04-20T00:50:36.266Z,977.63
2017-04-20T00:51:39.006Z,977.67
2017-04-20T00:52:41.263Z,977.71
2017-04-20T00:53:44.160Z,977.73
2017-04-20T00:54:47.064Z,977.73
2017-04-20T00:55:50.219Z,977.75
2017-04-20T00:56:53.149Z,977.80
2017-04-20T00:57:56.048Z,977.89
2017-04-20T00:58:58.446Z,977.85
2017-04-20T01:00:01.346Z,977.88
2017-04-20T01:01:04.703Z,977.88
2017-04-20T01:02:07.648Z,977.95
2017-04-20T01:03:10.600Z,977.98
2017-04-20T01:04:13.005Z,978.02
2017-04-20T01:05:15.959Z,978.02
2017-04-20T01:06:18.981Z,978.05
2017-04-20T01:07:21.929Z,978.04
2017-04-20T01:08:24.827Z,978.01
2017-04-20T01:09:27.794Z,978.02
2017-04-20T01:10:30.752Z,977.98
2017-04-20T01:11:33.763Z,978.00
2017-04-20T01:12:36.706Z,978.00
2017-04-20T01:13:39.123Z,978.02
2017-04-20T01:14:42.089Z,978.04
2017-04-20T01:15:45.043Z,978.01
2017-04-20T01:16:48.203Z,978.05
2017-04-20T01:17:50.592Z,978.03
2017-04-20T01:18:52.990Z,978.04
2017-04-20T01:19:55.406Z,978.07
2017-04-20T01:20:58.300Z,978.07
2017-04-20T01:22:01.425Z,978.04
2017-04-20T01:23:04.382Z,978.05
2017-04-20T01:24:06.787Z,978.06
2017-04-20T01:25:09.751Z,978.04
2017-04-20T01:26:12.654Z,978.08
2017-04-20T01:27:16.047Z,978.06
2017-04-20T01:28:19.025Z,978.09
2017-04-20T01:29:21.960Z,978.10
2017-04-20T01:30:24.876Z,978.04
2017-04-20T01:31:27.835Z,978.10
2017-04-20T01:32:30.831Z,978.12
2017-04-20T01:33:33.243Z,978.15
2017-04-20T01:34:35.644Z,978.14
2017-04-20T01:35:38.600Z,978.13
2017-04-20T01:36:41.503Z,978.15
2017-04-20T01:37:44.640Z,978.16
2017-04-20T01:38:47.604Z,978.15
2017-04-20T01:39:50.021Z,978.17
2017-04-20T01:40:52.956Z,978.18
2017-04-20T01:41:55.903Z,978.14
2017-04-20T01:42:58.921Z,978.19
2017-04-20T01:44:01.295Z,978.15
2017-04-20T01:45:03.700Z,978.17
2017-04-20T01:46:06.648Z,978.14
2017-04-20T01:47:09.546Z,978.18
2017-04-20T01:48:12.970Z,978.20
2017-04-20T01:49:15.868Z,978.19
2017-04-20T01:50:18.763Z,978.20
2017-04-20T01:51:21.719Z,978.18
2017-04-20T01:52:24.654Z,978.20
2017-04-20T01:53:27.657Z,978.23
2017-04-20T01:54:30.584Z,978.25
2017-04-20T01:55:33.471Z,978.28
2017-04-20T01:56:36.429Z,978.29
2017-04-20T01:57:39.383Z,978.34
2017-04-20T01:58:42.415Z,978.35
2017-04-20T01:59:45.382Z,978.37
2017-04-20T02:00:48.348Z,978.41
2017-04-20T02:01:51.483Z,978.43
2017-04-20T02:02:54.390Z,978.45
2017-04-20T02:03:57.447Z,978.47
2017-04-20T02:05:00.392Z,978.51
2017-04-20T02:06:03.332Z,978.47
2017-04-20T02:07:06.256Z,978.49
2017-04-20T02:08:09.215Z,978.50
2017-04-20T02:09:12.306Z,978.51
2017-04-20T02:10:14.695Z,978.49
2017-04-20T02:32:40.431Z,978.66
2017-04-20T02:33:42.970Z,978.68
2017-04-20T02:34:45.403Z,978.72
2017-04-20T02:35:49.179Z,978.74
2017-04-20T02:36:52.544Z,978.71
2017-04-20T02:37:57.073Z,978.71
2017-04-20T02:38:59.469Z,978.72
2017-04-20T03:12:22.623Z,978.80
2017-04-20T04:11:13.594Z,979.32
2017-04-20T04:12:15.959Z,979.29
2017-04-20T04:13:18.362Z,979.29
2017-04-20T04:14:20.746Z,979.31
2017-04-20T04:22:59.322Z,979.18
2017-04-20T04:24:28.681Z,979.17
2017-04-20T04:25:40.099Z,979.16
2017-04-20T04:26:45.720Z,979.17
2017-04-20T04:27:49.091Z,979.20
2017-04-20T04:28:52.040Z,979.18
2017-04-20T04:29:54.430Z,979.17
2017-04-20T04:30:56.802Z,979.16
2017-04-20T04:31:59.194Z,979.12
2017-04-20T04:33:01.571Z,979.11
2017-04-20T04:34:04.569Z,979.08
2017-04-20T04:35:06.959Z,979.08
2017-04-20T04:36:09.550Z,979.06
2017-04-20T04:37:11.934Z,979.09
2017-04-20T04:38:14.295Z,979.07
2017-04-20T04:39:17.287Z,979.08
2017-04-20T04:40:19.690Z,979.07
2017-04-20T04:41:22.079Z,979.02
2017-04-20T04:42:24.453Z,979.08
2017-04-20T04:43:26.853Z,979.06
2017-04-20T04:44:30.010Z,979.04
2017-04-20T04:45:32.364Z,979.05
2017-04-20T04:46:34.738Z,979.05
2017-04-20T04:47:37.134Z,979.05
2017-04-20T04:48:39.526Z,979.02
2017-04-20T04:49:42.450Z,979.01
2017-04-20T04:50:44.814Z,978.99
2017-04-20T04:52:30.415Z,978.99
2017-04-20T04:53:32.808Z,978.99
2017-04-20T04:54:35.179Z,979.01
2017-04-20T04:55:38.315Z,978.99
2017-04-20T04:56:40.679Z,979.01
2017-04-20T04:57:43.074Z,979.01
2017-04-20T04:58:45.445Z,979.00
2017-04-20T04:59:47.804Z,979.02
2017-04-20T05:00:50.893Z,979.02
2017-04-20T05:01:53.275Z,979.04
2017-04-20T05:02:55.641Z,979.06
2017-04-20T05:03:58.006Z,979.07
2017-04-20T05:05:00.369Z,979.09
2017-04-20T05:06:03.447Z,979.12
2017-04-20T05:07:05.846Z,979.09
2017-04-20T05:08:08.235Z,979.12
2017-04-20T05:09:10.626Z,979.08
2017-04-20T05:10:12.993Z,979.10
2017-04-20T05:11:17.879Z,979.07
2017-04-20T05:12:20.263Z,979.07
2017-04-20T05:13:22.637Z,979.09
2017-04-20T05:14:25.022Z,979.11
2017-04-20T05:15:27.417Z,979.07
2017-04-20T05:16:30.544Z,979.11
2017-04-20T05:17:32.913Z,979.09
2017-04-20T05:18:35.268Z,979.11
2017-04-20T05:19:37.642Z,979.08
2017-04-20T05:20:40.009Z,979.05
2017-04-20T05:21:42.917Z,979.07
2017-04-20T05:22:45.291Z,979.07
2017-04-20T05:23:47.654Z,979.09
2017-04-20T05:24:50.046Z,979.08
2017-04-20T05:25:52.415Z,979.13
2017-04-20T05:26:55.351Z,979.13
2017-04-20T05:27:57.745Z,979.11
2017-04-20T05:29:00.130Z,979.09
2017-04-20T05:30:02.521Z,979.06
2017-04-20T05:31:04.880Z,979.08
2017-04-20T05:32:07.833Z,979.07
2017-04-20T05:33:10.204Z,979.06
2017-04-20T05:34:12.587Z,979.04
2017-04-20T05:35:14.957Z,979.02
2017-04-20T05:36:17.320Z,979.01
2017-04-20T05:37:20.263Z,978.99
2017-04-20T05:38:22.661Z,978.98
2017-04-20T05:39:25.013Z,979.01
2017-04-20T05:40:27.379Z,978.94
2017-04-20T05:41:29.776Z,978.92
